createdAt,value
2022-10-16T00:02:23.353Z,22.90
2022-10-16T00:05:46.996Z,26.30
2022-10-16T00:08:20.285Z,25.10
2022-10-16T00:14:29.874Z,23.80
2022-10-16T00:17:31.163Z,27.00
2022-10-16T00:20:04.189Z,28.60
2022-10-16T00:22:38.755Z,29.30
2022-10-16T00:25:17.198Z,27.30
2022-10-16T00:27:50.555Z,24.90
2022-10-16T00:30:53.978Z,24.60
2022-10-16T00:33:51.972Z,23.00
2022-10-16T00:36:56.505Z,23.50
2022-10-16T00:42:35.463Z,23.40
2022-10-16T00:45:19.270Z,22.90
2022-10-16T00:51:12.160Z,23.30
2022-10-16T00:57:38.051Z,24.00
2022-10-16T01:00:27.618Z,26.20
2022-10-16T01:06:31.804Z,33.30
2022-10-16T01:09:18.903Z,32.60
2022-10-16T01:12:29.743Z,32.50
2022-10-16T01:18:44.451Z,30.80
2022-10-16T01:21:24.977Z,29.70
2022-10-16T01:24:30.020Z,27.90
2022-10-16T01:27:22.734Z,29.10
2022-10-16T01:30:10.210Z,29.40
2022-10-16T01:32:51.758Z,30.10
2022-10-16T01:35:53.838Z,29.90
2022-10-16T01:39:06.575Z,29.20
2022-10-16T01:41:51.453Z,29.10
2022-10-16T01:47:57.660Z,27.80
2022-10-16T01:50:58.964Z,27.60
2022-10-16T01:54:02.652Z,27.10
2022-10-16T01:56:38.344Z,27.40
2022-10-16T01:59:36.608Z,27.30
2022-10-16T02:02:37.903Z,30.40
2022-10-16T02:13:03.450Z,30.20
2022-10-16T02:23:04.041Z,40.40
2022-10-16T02:25:48.958Z,37.90
2022-10-16T02:28:49.963Z,36.00
2022-10-16T02:31:30.500Z,35.40
2022-10-16T02:34:53.997Z,36.80
2022-10-16T02:38:19.154Z,37.20
2022-10-16T02:40:56.265Z,38.50
2022-10-16T02:47:21.606Z,35.60
2022-10-16T02:49:59.675Z,35.10
2022-10-16T02:52:36.839Z,33.80
2022-10-16T02:55:18.988Z,33.50
2022-10-16T02:58:00.919Z,33.20
2022-10-16T03:01:00.448Z,32.90
2022-10-16T03:03:59.105Z,33.70
2022-10-16T03:10:20.075Z,32.20
2022-10-16T03:13:00.685Z,33.40
2022-10-16T03:15:35.265Z,33.70
2022-10-16T03:18:32.310Z,35.00
2022-10-16T03:21:06.825Z,35.20
2022-10-16T03:24:30.781Z,33.50
2022-10-16T03:27:29.293Z,32.80
2022-10-16T03:34:18.876Z,35.50
2022-10-16T03:36:54.493Z,35.30
2022-10-16T03:42:57.608Z,40.50
2022-10-16T03:45:31.374Z,44.10
2022-10-16T03:48:05.658Z,45.10
2022-10-16T03:54:04.996Z,49.40
2022-10-16T03:57:28.012Z,52.00
2022-10-16T04:00:22.366Z,48.50
2022-10-16T04:03:05.145Z,52.40
2022-10-16T04:06:50.990Z,48.90
2022-10-16T04:09:49.831Z,49.80
2022-10-16T04:12:30.804Z,49.70
2022-10-16T04:15:51.334Z,48.50
2022-10-16T04:22:10.511Z,41.70
2022-10-16T04:24:47.295Z,40.90
2022-10-16T04:30:35.811Z,45.90
2022-10-16T04:33:17.172Z,44.50
2022-10-16T04:35:59.049Z,41.60
2022-10-16T04:38:39.902Z,41.90
2022-10-16T04:41:38.381Z,41.40
2022-10-16T04:54:28.649Z,39.90
2022-10-16T04:57:31.941Z,39.20
2022-10-16T05:00:05.348Z,38.30
2022-10-16T05:02:46.085Z,36.10
2022-10-16T05:05:51.428Z,37.40
2022-10-16T05:08:51.935Z,37.40
2022-10-16T05:15:35.254Z,36.90
2022-10-16T05:18:38.570Z,36.70
2022-10-16T05:21:22.096Z,37.40
2022-10-16T05:24:05.381Z,37.30
2022-10-16T05:27:31.234Z,38.30
2022-10-16T05:30:29.796Z,37.90
2022-10-16T05:33:33.102Z,38.70
2022-10-16T05:36:40.135Z,36.20
2022-10-16T05:39:36.987Z,35.60
2022-10-16T05:42:34.858Z,33.40
2022-10-16T05:45:41.799Z,33.20
2022-10-16T05:48:17.246Z,32.00
2022-10-16T05:54:01.833Z,32.10
2022-10-16T05:57:10.280Z,31.80
2022-10-16T05:59:47.127Z,32.00
2022-10-16T06:02:25.713Z,31.10
2022-10-16T06:05:05.336Z,30.90
2022-10-16T06:11:09.106Z,31.00
2022-10-16T06:14:13.117Z,32.30
2022-10-16T06:17:10.639Z,31.90
2022-10-16T06:20:12.326Z,31.80
2022-10-16T06:22:50.872Z,33.10
2022-10-16T06:25:25.662Z,32.00
2022-10-16T06:28:04.947Z,31.70
2022-10-16T06:31:04.173Z,33.10
2022-10-16T06:33:48.985Z,32.20
2022-10-16T06:36:23.800Z,32.30
2022-10-16T06:42:47.242Z,31.30
2022-10-16T06:45:47.816Z,31.10
2022-10-16T06:49:16.568Z,30.30
2022-10-16T06:51:57.113Z,32.40
2022-10-16T06:55:25.709Z,34.10
2022-10-16T06:58:01.460Z,32.70
2022-10-16T07:00:41.956Z,29.10
2022-10-16T07:03:48.185Z,28.50
2022-10-16T07:06:49.066Z,25.70
2022-10-16T07:09:26.990Z,25.00
2022-10-16T07:12:27.055Z,20.90
2022-10-16T07:15:29.103Z,20.30
2022-10-16T07:18:06.290Z,21.50
2022-10-16T07:23:47.760Z,25.60
2022-10-16T07:26:47.966Z,29.20
2022-10-16T07:29:25.502Z,23.70
2022-10-16T07:32:01.284Z,20.60
2022-10-16T07:37:59.887Z,17.80
2022-10-16T07:40:34.518Z,16.50
2022-10-16T07:43:09.227Z,17.70
2022-10-16T07:46:10.979Z,16.80
2022-10-16T07:49:10.732Z,15.80
2022-10-16T07:51:45.791Z,17.60
2022-10-16T07:54:46.347Z,17.60
2022-10-16T07:57:48.391Z,17.60
2022-10-16T08:00:27.555Z,16.10
2022-10-16T08:03:29.024Z,16.40
2022-10-16T08:06:07.471Z,16.90
2022-10-16T08:09:10.639Z,17.40
2022-10-16T08:12:06.932Z,16.70
2022-10-16T08:15:03.804Z,15.90
2022-10-16T08:17:38.570Z,13.40
2022-10-16T08:20:42.304Z,12.10
2022-10-16T08:23:44.128Z,10.00
2022-10-16T08:26:43.109Z,9.50
2022-10-16T08:29:18.302Z,9.50
2022-10-16T08:31:54.947Z,10.00
2022-10-16T08:34:31.434Z,10.10
2022-10-16T08:37:07.979Z,9.60
2022-10-16T08:39:45.492Z,9.30
2022-10-16T08:42:35.744Z,9.50
2022-10-16T08:45:24.154Z,9.00
2022-10-16T08:48:06.811Z,9.30
2022-10-16T08:51:08.375Z,9.20
2022-10-16T08:57:43.558Z,8.80
2022-10-16T09:00:28.802Z,8.60
2022-10-16T09:03:15.247Z,8.30
2022-10-16T09:07:00.254Z,8.60
2022-10-16T09:10:24.493Z,8.60
2022-10-16T09:13:25.587Z,9.00
2022-10-16T09:16:34.177Z,8.90
2022-10-16T09:23:08.126Z,8.60
2022-10-16T09:25:57.175Z,7.80
2022-10-16T09:28:34.040Z,8.20
2022-10-16T09:31:35.387Z,8.10
2022-10-16T09:34:16.551Z,10.80
2022-10-16T09:36:52.473Z,9.40
2022-10-16T09:39:53.082Z,8.10
2022-10-16T09:42:36.916Z,8.70
2022-10-16T09:45:26.945Z,11.70
2022-10-16T09:48:32.745Z,10.00
2022-10-16T09:51:22.335Z,9.40
2022-10-16T09:54:02.977Z,8.10
2022-10-16T10:00:25.049Z,8.30
2022-10-16T10:06:40.664Z,8.20
2022-10-16T10:09:32.283Z,7.60
2022-10-16T10:12:32.591Z,8.00
2022-10-16T10:15:43.063Z,8.30
2022-10-16T10:18:27.728Z,8.80
2022-10-16T10:21:51.215Z,7.20
2022-10-16T10:24:53.841Z,7.20
2022-10-16T10:31:17.406Z,7.10
2022-10-16T10:37:46.612Z,6.90
2022-10-16T10:40:41.195Z,8.10
2022-10-16T10:44:06.016Z,7.20
2022-10-16T10:47:09.390Z,10.20
2022-10-16T10:49:55.494Z,8.00
2022-10-16T10:52:53.718Z,6.80
2022-10-16T10:56:00.690Z,7.80
2022-10-16T11:06:56.470Z,7.30
2022-10-16T11:09:58.664Z,7.40
2022-10-16T11:12:39.869Z,8.70
2022-10-16T11:19:53.356Z,7.50
2022-10-16T11:22:42.275Z,7.90
2022-10-16T11:25:21.125Z,7.80
2022-10-16T11:28:47.243Z,7.00
2022-10-16T11:31:29.973Z,7.40
2022-10-16T11:34:34.117Z,7.30
2022-10-16T11:37:44.964Z,7.70
2022-10-16T11:40:30.883Z,7.90
2022-10-16T11:43:35.176Z,7.10
2022-10-16T11:46:22.629Z,6.80
2022-10-16T11:49:43.464Z,7.10
2022-10-16T11:52:49.481Z,7.50
2022-10-16T12:02:55.209Z,8.10
2022-10-16T12:12:49.396Z,7.10
2022-10-16T12:15:59.311Z,7.20
2022-10-16T12:18:34.923Z,7.00
2022-10-16T12:21:16.447Z,6.70
2022-10-16T12:27:40.063Z,7.10
2022-10-16T12:31:01.140Z,7.20
2022-10-16T12:34:22.499Z,7.30
2022-10-16T12:41:12.737Z,7.50
2022-10-16T12:44:12.415Z,7.50
2022-10-16T12:50:36.689Z,7.50
2022-10-16T12:53:25.430Z,7.40
2022-10-16T12:56:31.241Z,7.90
2022-10-16T12:59:31.306Z,7.50
2022-10-16T13:02:36.890Z,7.60
2022-10-16T13:05:31.396Z,9.50
2022-10-16T13:08:39.655Z,9.80
2022-10-16T13:11:29.537Z,10.30
2022-10-16T13:21:42.021Z,8.90
2022-10-16T13:25:02.972Z,10.40
2022-10-16T13:28:13.334Z,8.90
2022-10-16T13:31:15.575Z,10.40
2022-10-16T13:40:27.447Z,14.80
2022-10-16T13:43:28.049Z,9.50
2022-10-16T13:49:14.449Z,9.80
2022-10-16T13:52:43.086Z,9.40
2022-10-16T13:55:20.923Z,12.30
2022-10-16T14:04:55.090Z,9.80
2022-10-16T14:07:33.639Z,9.70
2022-10-16T14:17:23.360Z,10.10
2022-10-16T14:20:04.179Z,9.70
2022-10-16T14:23:31.929Z,8.70
2022-10-16T14:26:34.307Z,9.60
2022-10-16T14:29:17.359Z,8.90
2022-10-16T14:32:29.447Z,8.60
2022-10-16T14:35:08.445Z,12.70
2022-10-16T14:37:42.333Z,11.40
2022-10-16T14:44:10.101Z,9.40
2022-10-16T14:46:50.681Z,10.70
2022-10-16T14:49:30.382Z,10.90
2022-10-16T14:52:21.735Z,9.30
2022-10-16T14:55:19.107Z,10.00
2022-10-16T14:58:01.639Z,9.10
2022-10-16T15:00:40.143Z,15.40
2022-10-16T15:03:40.241Z,9.50
2022-10-16T15:06:19.044Z,9.10
2022-10-16T15:08:53.737Z,12.70
2022-10-16T15:11:51.376Z,11.60
2022-10-16T15:14:30.621Z,18.60
2022-10-16T15:17:31.292Z,34.70
2022-10-16T15:20:36.541Z,12.10
2022-10-16T15:23:16.929Z,10.60
2022-10-16T15:29:16.994Z,10.20
2022-10-16T15:31:49.328Z,10.90
2022-10-16T15:35:09.373Z,10.30
2022-10-16T15:38:10.507Z,10.80
2022-10-16T15:41:10.933Z,12.90
2022-10-16T15:43:49.286Z,11.50
2022-10-16T15:46:54.086Z,12.60
2022-10-16T15:49:55.055Z,12.60
2022-10-16T15:52:37.354Z,14.00
2022-10-16T15:55:14.206Z,13.00
2022-10-16T15:57:47.109Z,12.30
2022-10-16T16:00:28.426Z,11.90
2022-10-16T16:03:03.770Z,24.60
2022-10-16T16:05:41.759Z,31.20
2022-10-16T16:08:18.775Z,37.00
2022-10-16T16:11:02.409Z,42.60
2022-10-16T16:13:38.239Z,31.50
2022-10-16T16:16:18.020Z,41.70
2022-10-16T16:18:53.702Z,42.20
2022-10-16T16:22:37.237Z,39.60
2022-10-16T16:25:10.094Z,30.60
2022-10-16T16:28:34.308Z,36.00
2022-10-16T16:31:11.692Z,46.40
2022-10-16T16:33:45.623Z,45.10
2022-10-16T16:39:05.013Z,98.90
2022-10-16T16:41:38.151Z,84.00
2022-10-16T16:44:14.982Z,135.70
2022-10-16T16:47:36.110Z,37.20
2022-10-16T16:50:14.209Z,41.30
2022-10-16T16:52:46.225Z,98.60
2022-10-16T16:55:19.973Z,73.00
2022-10-16T16:57:59.326Z,38.30
2022-10-16T17:00:34.070Z,41.30
2022-10-16T17:03:34.411Z,33.80
2022-10-16T17:06:22.012Z,47.80
2022-10-16T17:09:26.609Z,84.30
2022-10-16T17:12:01.898Z,65.80
2022-10-16T17:14:38.161Z,54.30
2022-10-16T17:17:39.197Z,52.40
2022-10-16T17:20:20.182Z,44.90
2022-10-16T17:22:55.554Z,40.70
2022-10-16T17:25:32.012Z,33.30
2022-10-16T17:28:32.514Z,39.40
2022-10-16T17:31:54.959Z,38.60
2022-10-16T17:35:19.549Z,40.50
2022-10-16T17:37:51.308Z,58.20
2022-10-16T17:40:29.625Z,41.40
2022-10-16T17:43:06.592Z,33.40
2022-10-16T17:48:43.521Z,35.60
2022-10-16T17:51:18.100Z,46.80
2022-10-16T17:56:53.928Z,61.80
2022-10-16T17:59:30.665Z,32.20
2022-10-16T18:02:28.021Z,29.00
2022-10-16T18:05:01.365Z,27.90
2022-10-16T18:07:36.613Z,30.50
2022-10-16T18:10:20.968Z,25.60
2022-10-16T18:13:20.731Z,25.20
2022-10-16T18:16:27.964Z,22.50
2022-10-16T18:19:05.136Z,21.10
2022-10-16T18:21:43.291Z,25.40
2022-10-16T18:24:40.447Z,30.90
2022-10-16T18:27:14.528Z,31.70
2022-10-16T18:34:24.556Z,32.30
2022-10-16T18:41:11.491Z,24.70
2022-10-16T18:43:46.186Z,34.00
2022-10-16T18:46:25.060Z,36.60
2022-10-16T18:49:01.655Z,24.50
2022-10-16T18:52:27.408Z,31.30
2022-10-16T18:55:35.368Z,25.50
2022-10-16T19:01:17.990Z,23.20
2022-10-16T19:03:59.680Z,22.40
2022-10-16T19:10:25.922Z,25.60
2022-10-16T19:13:01.584Z,26.30
2022-10-16T19:16:09.321Z,28.60
2022-10-16T19:19:43.222Z,41.60
2022-10-16T19:22:29.067Z,33.10
2022-10-16T19:25:08.718Z,30.60
2022-10-16T19:27:48.804Z,32.30
2022-10-16T19:30:26.961Z,28.80
2022-10-16T19:33:09.002Z,27.40
2022-10-16T19:42:31.375Z,25.00
2022-10-16T19:45:03.593Z,26.80
2022-10-16T19:48:01.218Z,30.00
2022-10-16T19:51:00.351Z,28.90
2022-10-16T19:53:35.965Z,51.80
2022-10-16T19:56:34.246Z,70.70
2022-10-16T19:59:09.946Z,63.70
2022-10-16T20:01:53.807Z,52.80
2022-10-16T20:04:51.235Z,33.80
2022-10-16T20:07:37.809Z,41.50
2022-10-16T20:16:22.780Z,26.10
2022-10-16T20:22:44.280Z,26.60
2022-10-16T20:25:19.104Z,27.00
2022-10-16T20:28:21.616Z,31.60
2022-10-16T20:31:52.551Z,32.20
2022-10-16T20:35:16.209Z,26.20
2022-10-16T20:37:51.168Z,26.20
2022-10-16T20:40:31.942Z,25.00
2022-10-16T20:50:03.849Z,25.60
2022-10-16T20:52:38.056Z,25.60
2022-10-16T20:55:12.698Z,25.80
2022-10-16T20:57:48.894Z,25.40
2022-10-16T21:00:23.411Z,28.20
2022-10-16T21:02:59.160Z,27.30
2022-10-16T21:05:34.976Z,27.60
2022-10-16T21:08:07.653Z,27.70
2022-10-16T21:10:41.023Z,28.70
2022-10-16T21:13:15.241Z,28.20
2022-10-16T21:15:49.922Z,27.60
2022-10-16T21:18:22.500Z,29.00
2022-10-16T21:20:54.900Z,27.20
2022-10-16T21:23:27.032Z,25.80
2022-10-16T21:26:03.092Z,26.10
2022-10-16T21:28:36.041Z,34.80
2022-10-16T21:31:15.759Z,37.90
2022-10-16T21:33:48.765Z,35.80
2022-10-16T21:36:26.293Z,35.60
2022-10-16T21:39:05.700Z,37.00
2022-10-16T21:41:44.921Z,37.10
2022-10-16T21:44:20.255Z,36.50
2022-10-16T21:46:54.389Z,34.50
2022-10-16T21:49:28.453Z,33.60
2022-10-16T21:52:00.460Z,30.60
2022-10-16T21:54:32.614Z,33.20
2022-10-16T21:57:08.461Z,32.10
2022-10-16T21:59:42.191Z,32.70
2022-10-16T22:02:15.252Z,32.70
2022-10-16T22:04:47.281Z,31.10
2022-10-16T22:07:20.214Z,30.40
2022-10-16T22:09:54.923Z,29.60
2022-10-16T22:12:28.013Z,29.50
2022-10-16T22:15:08.508Z,29.60
2022-10-16T22:17:42.367Z,31.70
2022-10-16T22:20:15.486Z,32.40
2022-10-16T22:22:48.240Z,32.00
2022-10-16T22:25:20.651Z,32.00
2022-10-16T22:27:54.563Z,31.70
2022-10-16T22:30:27.678Z,30.70
2022-10-16T22:33:00.479Z,31.20
2022-10-16T22:35:32.833Z,30.20
2022-10-16T22:38:05.086Z,29.90
2022-10-16T22:40:41.238Z,29.50
2022-10-16T22:43:14.770Z,31.60
2022-10-16T22:45:49.465Z,31.80
2022-10-16T22:48:22.638Z,30.80
2022-10-16T22:50:57.296Z,30.70
2022-10-16T22:53:30.591Z,41.10
2022-10-16T22:56:02.847Z,50.70
2022-10-16T22:58:35.611Z,37.60
2022-10-16T23:01:13.210Z,37.00
2022-10-16T23:03:46.127Z,35.60
2022-10-16T23:06:19.294Z,37.40
2022-10-16T23:08:55.528Z,39.10
2022-10-16T23:11:28.585Z,37.70
2022-10-16T23:14:01.407Z,36.60
2022-10-16T23:16:35.579Z,36.00
2022-10-16T23:21:43.722Z,32.60
2022-10-16T23:24:18.418Z,33.00
2022-10-16T23:26:51.279Z,33.30
2022-10-16T23:29:23.408Z,34.30
2022-10-16T23:31:59.440Z,36.10
2022-10-16T23:34:32.209Z,36.60
2022-10-16T23:37:06.733Z,36.50
2022-10-16T23:39:41.660Z,37.70
2022-10-16T23:42:13.935Z,37.30
2022-10-16T23:44:48.321Z,37.60
2022-10-16T23:47:21.203Z,36.10
2022-10-16T23:49:57.200Z,38.50
2022-10-16T23:52:29.419Z,38.30
2022-10-16T23:55:03.100Z,37.80
2022-10-16T23:57:35.666Z,40.20
